Time;durP1;ratioP1;P1;durP2;ratioP2;P2;SDS_P1;SDS_P2;PMS_P1;PMS_P2;Temp;Humidity;BMP_temperature;BMP_pressure;BME280_temperature;BME280_humidity;BME280_pressure;Samples;Min_cycle;Max_cycle;Signal;HPM_P1;HPM_P2
2021/12/07 00:01:54;;;;;;;14.70;6.30;;;;;;;0.58;91.56;100041.89;104308;1325;75026;-78
2021/12/07 00:04:21;;;;;;;13.90;6.00;;;;;;;0.55;91.62;100042.09;104529;1330;71352;-78
2021/12/07 00:06:48;;;;;;;15.20;6.50;;;;;;;0.54;91.58;100032.45;104516;1324;72477;-78
2021/12/07 00:09:17;;;;;;;13.40;6.20;;;;;;;0.54;91.38;100030.52;104128;1328;62179;-76
2021/12/07 00:11:47;;;;;;;16.50;6.90;;;;;;;0.55;91.42;100027.86;104488;1324;60712;-75
2021/12/07 00:14:21;;;;;;;10.40;5.10;;;;;;;0.55;91.36;100022.80;104527;1328;75042;-76
2021/12/07 00:16:49;;;;;;;11.70;5.40;;;;;;;0.54;91.19;100020.45;104516;1329;72104;-77
2021/12/07 00:19:15;;;;;;;14.40;5.70;;;;;;;0.52;91.08;100020.59;104510;1324;73023;-77
2021/12/07 00:21:43;;;;;;;14.40;5.40;;;;;;;0.52;90.90;100020.11;104365;1330;61168;-77
2021/12/07 00:24:11;;;;;;;14.60;5.40;;;;;;;0.52;90.73;100016.80;104544;1328;61632;-77
2021/12/07 00:26:40;;;;;;;15.90;6.20;;;;;;;0.53;90.68;100011.83;104512;1323;74884;-77
2021/12/07 00:29:09;;;;;;;12.40;6.40;;;;;;;0.54;90.48;100006.17;104494;1330;72607;-75
2021/12/07 00:31:46;;;;;;;16.90;6.90;;;;;;;0.54;90.59;100002.75;104404;1329;71945;-74
2021/12/07 00:34:40;;;;;;;14.60;5.60;;;;;;;0.51;90.47;99998.95;104534;1325;59684;-74
2021/12/07 00:37:08;;;;;;;13.20;7.40;;;;;;;0.46;90.54;99997.27;103649;1331;61314;-74
2021/12/07 00:39:36;;;;;;;12.30;5.20;;;;;;;0.42;90.48;99994.85;104407;1329;76308;-74
2021/12/07 00:42:04;;;;;;;17.70;7.00;;;;;;;0.37;90.71;99996.58;104500;1327;71521;-79
2021/12/07 00:44:31;;;;;;;10.20;5.80;;;;;;;0.34;90.71;99993.24;104397;1324;73961;-75
2021/12/07 00:46:57;;;;;;;20.70;8.80;;;;;;;0.28;90.80;99991.77;103881;1331;59121;-74
2021/12/07 00:49:24;;;;;;;13.00;7.40;;;;;;;0.25;90.92;99993.24;104444;1326;60679;-75
2021/12/07 00:51:53;;;;;;;19.60;8.00;;;;;;;0.21;90.96;99990.82;104495;1326;76014;-75
2021/12/07 00:54:20;;;;;;;16.70;7.60;;;;;;;0.14;91.41;99989.48;103560;1331;71376;-76
2021/12/07 00:56:47;;;;;;;16.80;6.30;;;;;;;0.07;91.46;99988.15;104489;1327;72903;-76
2021/12/07 00:59:14;;;;;;;17.20;6.90;;;;;;;0.00;91.63;99986.25;104510;1330;59845;-78
2021/12/07 01:01:41;;;;;;;15.90;6.60;;;;;;;-0.07;92.01;99985.56;104519;1330;60580;-78
2021/12/07 01:04:08;;;;;;;15.40;7.10;;;;;;;-0.11;92.17;99984.02;104370;1324;75854;-75
2021/12/07 01:09:33;;;;;;;22.90;9.50;;;;;;;-0.15;92.50;99982.93;104539;1324;72881;-78
2021/12/07 01:25:53;;;;;;;16.90;7.80;;;;;;;-0.30;93.70;99974.92;104430;1324;59455;-75
2021/12/07 01:28:27;;;;;;;26.90;11.10;;;;;;;-0.32;93.87;99974.39;104499;1328;60640;-75
2021/12/07 01:41:24;;;;;;;23.90;9.30;;;;;;;-0.24;94.11;99970.27;104542;1328;60807;-78
2021/12/07 01:59:49;;;;;;;22.90;8.10;;;;;;;-0.24;94.51;99965.44;104516;1328;72417;-77
2021/12/07 02:02:18;;;;;;;22.20;9.80;;;;;;;-0.25;94.61;99966.72;104637;1313;73049;-75
2021/12/07 02:04:46;;;;;;;16.60;6.80;;;;;;;-0.23;94.71;99964.84;104220;1318;61551;-77
2021/12/07 02:07:14;;;;;;;22.50;9.60;;;;;;;-0.23;94.77;99964.43;104783;1324;59379;-75
2021/12/07 02:09:44;;;;;;;22.70;8.80;;;;;;;-0.21;94.91;99968.35;103521;1331;75134;-74
2021/12/07 02:12:12;;;;;;;16.80;8.10;;;;;;;-0.21;94.95;99965.69;104771;1327;72440;-75
2021/12/07 02:14:40;;;;;;;15.50;7.40;;;;;;;-0.20;94.91;99968.73;104787;1324;74394;-75
2021/12/07 02:17:12;;;;;;;19.60;7.60;;;;;;;-0.19;94.86;99968.83;104843;1322;62565;-75
2021/12/07 02:19:40;;;;;;;21.00;9.40;;;;;;;-0.16;94.80;99972.09;104850;1319;61949;-75
2021/12/07 02:22:09;;;;;;;23.70;9.10;;;;;;;-0.14;94.84;99974.90;104722;1325;76351;-75
2021/12/07 02:24:37;;;;;;;30.50;12.80;;;;;;;-0.11;94.76;99972.88;104812;1321;72429;-75
2021/12/07 02:27:04;;;;;;;25.40;11.10;;;;;;;-0.08;94.71;99974.52;103608;1328;73100;-75
2021/12/07 02:29:31;;;;;;;22.50;10.00;;;;;;;-0.05;94.53;99970.29;104872;1322;62495;-75
2021/12/07 02:32:00;;;;;;;22.10;9.90;;;;;;;-0.06;94.52;99969.46;104775;1322;60469;-75
2021/12/07 02:34:27;;;;;;;16.40;5.60;;;;;;;-0.06;94.64;99969.34;104872;1322;75254;-76
2021/12/07 02:36:57;;;;;;;14.80;6.80;;;;;;;-0.06;94.68;99962.19;104857;1320;72491;-75
2021/12/07 02:39:33;;;;;;;18.30;8.30;;;;;;;-0.06;94.84;99958.93;104668;1322;71609;-75
2021/12/07 02:42:01;;;;;;;21.30;9.50;;;;;;;-0.07;94.82;99968.20;104779;1321;61879;-77
2021/12/07 02:44:28;;;;;;;27.00;9.60;;;;;;;-0.06;94.98;99962.58;104278;1326;60606;-77
2021/12/07 02:46:55;;;;;;;21.00;8.70;;;;;;;-0.04;94.97;99963.81;104517;1327;76033;-79
2021/12/07 02:49:22;;;;;;;22.50;10.80;;;;;;;-0.03;95.10;99961.23;104734;1321;71351;-79
2021/12/07 02:51:49;;;;;;;26.00;9.50;;;;;;;0.01;95.11;99960.79;103669;1328;72880;-79
2021/12/07 02:54:15;;;;;;;22.00;8.70;;;;;;;0.05;95.08;99962.02;104771;1321;60972;-79
2021/12/07 02:56:42;;;;;;;23.20;11.60;;;;;;;0.09;95.11;99963.64;104701;1322;60603;-78
2021/12/07 02:59:10;;;;;;;23.80;11.10;;;;;;;0.12;95.07;99965.44;104738;1325;74995;-78
2021/12/07 03:01:43;;;;;;;24.90;10.90;;;;;;;0.15;94.89;99966.44;103739;1324;71199;-77
2021/12/07 03:04:18;;;;;;;21.20;9.70;;;;;;;0.17;94.87;99969.02;104742;1322;73793;-76
2021/12/07 03:09:52;;;;;;;21.00;8.60;;;;;;;0.19;94.67;99965.73;104743;1325;61668;-75
2021/12/07 03:28:37;;;;;;;23.30;9.80;;;;;;;0.42;94.52;99984.58;103993;1323;71651;-76
2021/12/07 03:31:06;;;;;;;28.50;11.40;;;;;;;0.43;94.57;99986.77;104634;1324;73979;-75
2021/12/07 03:33:34;;;;;;;22.90;10.60;;;;;;;0.43;94.62;99988.16;103882;1329;60795;-75
2021/12/07 03:36:04;;;;;;;20.90;9.00;;;;;;;0.42;94.85;99985.62;104555;1326;60334;-75
2021/12/07 03:38:31;;;;;;;17.30;7.80;;;;;;;0.42;94.92;99986.33;104594;1327;76054;-75
2021/12/07 03:40:58;;;;;;;18.50;8.60;;;;;;;0.40;95.07;99989.42;103754;1329;70893;-75
2021/12/07 03:43:25;;;;;;;21.40;11.40;;;;;;;0.38;95.12;99985.73;104550;1324;71934;-75
2021/12/07 03:45:52;;;;;;;29.80;14.10;;;;;;;0.38;95.08;99993.73;104613;1324;61446;-75
2021/12/07 03:48:19;;;;;;;25.40;10.90;;;;;;;0.39;95.32;99989.16;104598;1327;59166;-78
2021/12/07 03:50:45;;;;;;;35.40;13.90;;;;;;;0.40;95.50;99989.91;104630;1327;74260;-78
2021/12/07 03:53:13;;;;;;;22.80;9.90;;;;;;;0.41;95.71;99995.78;103857;1329;72516;-75
2021/12/07 03:55:41;;;;;;;20.60;8.40;;;;;;;0.42;95.93;99991.71;104593;1324;74160;-75
2021/12/07 03:58:08;;;;;;;19.90;8.10;;;;;;;0.43;96.32;99993.04;104502;1325;61516;-78
2021/12/07 04:00:37;;;;;;;21.20;8.70;;;;;;;0.42;96.44;99992.20;103872;1326;61848;-75
2021/12/07 04:03:09;;;;;;;20.50;9.00;;;;;;;0.41;96.79;99990.56;104526;1324;76053;-75
2021/12/07 04:05:44;;;;;;;19.30;8.80;;;;;;;0.40;96.93;99993.03;104546;1324;72555;-78
2021/12/07 04:08:14;;;;;;;17.70;9.10;;;;;;;0.41;96.97;99990.94;104521;1322;73976;-76
2021/12/07 04:10:41;;;;;;;21.80;10.10;;;;;;;0.41;96.97;99993.00;104481;1323;61610;-75
2021/12/07 04:13:07;;;;;;;22.20;9.00;;;;;;;0.43;96.86;99993.17;104466;1325;60453;-75
2021/12/07 04:15:34;;;;;;;22.30;10.50;;;;;;;0.44;97.06;99992.73;104120;1330;74963;-79
2021/12/07 04:18:02;;;;;;;15.50;8.40;;;;;;;0.46;97.20;99994.36;104484;1322;71410;-77
2021/12/07 04:20:29;;;;;;;21.50;10.50;;;;;;;0.46;97.34;99995.58;104507;1325;73217;-79
2021/12/07 04:22:58;;;;;;;25.10;10.90;;;;;;;0.46;97.13;99998.13;104485;1324;61500;-76
2021/12/07 04:25:25;;;;;;;16.20;8.50;;;;;;;0.48;97.22;100003.55;104422;1330;60711;-78
2021/12/07 04:27:53;;;;;;;21.00;9.60;;;;;;;0.48;97.30;100004.41;104354;1324;75977;-75
2021/12/07 04:30:33;;;;;;;19.20;8.40;;;;;;;0.49;97.23;100007.27;103481;1337;71413;-75
2021/12/07 04:33:01;;;;;;;12.90;6.90;;;;;;;0.51;97.30;100008.38;104350;1325;74008;-75
2021/12/07 04:35:28;;;;;;;23.70;8.30;;;;;;;0.52;97.17;100010.39;103968;1325;62535;-76
2021/12/07 04:37:56;;;;;;;24.80;9.60;;;;;;;0.52;97.15;100009.99;104242;1328;60380;-75
2021/12/07 04:40:28;;;;;;;23.90;11.00;;;;;;;0.54;96.78;100010.33;104573;1328;74979;-75
2021/12/07 04:42:55;;;;;;;26.30;11.20;;;;;;;0.55;96.85;100005.77;104560;1325;71738;-78
2021/12/07 04:45:35;;;;;;;17.60;9.70;;;;;;;0.55;97.03;100005.55;104416;1325;73072;-76
2021/12/07 04:58:41;;;;;;;14.70;6.50;;;;;;;0.48;97.65;100002.37;104239;1311;71511;-79
2021/12/07 05:01:10;;;;;;;19.40;8.70;;;;;;;0.46;97.81;100009.80;104792;1325;61125;-76
2021/12/07 05:03:39;;;;;;;11.30;5.10;;;;;;;0.46;97.87;100013.15;104694;1324;61460;-76
2021/12/07 05:06:08;;;;;;;23.80;10.10;;;;;;;0.47;97.96;100015.28;104755;1325;76084;-76
2021/12/07 05:08:49;;;;;;;17.60;8.10;;;;;;;0.50;98.10;100012.09;104826;1323;71626;-78
2021/12/07 05:23:53;;;;;;;23.10;10.50;;;;;;;0.60;98.00;100010.52;103888;1328;76019;-75
2021/12/07 05:24:50;;;;;;;26.40;9.40;;;;;;;0.60;98.25;100012.23;104757;1325;72927;-75
2021/12/07 05:38:38;;;;;;;20.00;10.40;;;;;;;0.64;98.29;100018.77;101175;1331;72230;-76
2021/12/07 05:41:08;;;;;;;17.90;9.10;;;;;;;0.65;98.49;100019.06;101099;1331;59368;-74
2021/12/07 05:43:35;;;;;;;18.70;9.30;;;;;;;0.66;98.43;100019.80;101866;1325;173721;-75
2021/12/07 05:46:03;;;;;;;18.50;10.00;;;;;;;0.70;98.64;100030.08;101244;1329;59814;-76
2021/12/07 05:48:30;;;;;;;15.20;8.20;;;;;;;0.73;98.68;100029.83;101608;1326;61631;-75
2021/12/07 05:50:57;;;;;;;26.00;8.70;;;;;;;0.74;98.52;100031.16;101410;1307;72324;-73
2021/12/07 05:53:24;;;;;;;18.20;8.60;;;;;;;0.74;98.50;100031.50;101906;1313;71389;-75
2021/12/07 05:55:51;;;;;;;17.30;7.70;;;;;;;0.75;98.57;100039.23;101432;1325;73217;-75
2021/12/07 05:58:19;;;;;;;20.40;9.80;;;;;;;0.75;98.62;100041.68;101301;1328;59923;-78
2021/12/07 06:00:47;;;;;;;16.40;8.10;;;;;;;0.75;98.40;100045.20;101309;1328;60641;-75
2021/12/07 06:03:15;;;;;;;18.60;9.00;;;;;;;0.76;98.29;100049.95;101418;1323;74112;-75
2021/12/07 06:05:43;;;;;;;16.60;8.80;;;;;;;0.77;98.17;100052.52;101312;1327;71525;-75
2021/12/07 06:08:10;;;;;;;16.60;7.10;;;;;;;0.76;98.27;100056.02;101290;1323;73126;-75
2021/12/07 06:10:37;;;;;;;16.50;8.60;;;;;;;0.74;98.49;100057.55;101304;1319;61254;-76
2021/12/07 06:13:04;;;;;;;16.60;9.20;;;;;;;0.74;98.47;100058.45;101020;1326;60405;-75
2021/12/07 06:15:34;;;;;;;13.90;6.80;;;;;;;0.69;98.31;100052.65;101211;1326;74591;-76
2021/12/07 06:18:01;;;;;;;18.10;8.50;;;;;;;0.73;98.39;100065.52;101056;1326;71463;-77
2021/12/07 06:20:48;;;;;;;15.90;8.00;;;;;;;0.74;98.50;100066.84;101081;1328;71823;-76
2021/12/07 06:23:17;;;;;;;9.80;4.70;;;;;;;0.72;98.48;100064.18;101100;1325;59797;-77
2021/12/07 06:25:46;;;;;;;16.80;7.30;;;;;;;0.71;98.60;100067.63;101178;1329;60596;-76
2021/12/07 06:28:13;;;;;;;12.50;6.70;;;;;;;0.70;98.53;100081.42;101070;1329;73489;-77
2021/12/07 06:30:42;;;;;;;15.40;8.20;;;;;;;0.69;98.75;100079.09;101268;1329;71532;-76
2021/12/07 06:33:09;;;;;;;21.70;10.40;;;;;;;0.70;98.71;100082.61;102165;1313;72686;-77
2021/12/07 06:35:36;;;;;;;21.30;9.60;;;;;;;0.71;98.58;100082.21;101154;1330;61446;-75
2021/12/07 06:38:03;;;;;;;19.20;9.10;;;;;;;0.73;98.58;100080.80;101282;1316;60630;-75
2021/12/07 06:40:30;;;;;;;22.20;9.60;;;;;;;0.78;98.65;100081.80;101158;1326;72635;-75
2021/12/07 06:42:59;;;;;;;20.70;9.90;;;;;;;0.81;98.75;100088.88;101309;1316;71614;-76
2021/12/07 06:45:28;;;;;;;22.20;9.90;;;;;;;0.85;98.58;100088.41;101225;1326;72914;-77
2021/12/07 06:47:56;;;;;;;22.00;9.00;;;;;;;0.87;98.38;100092.02;101752;1313;61750;-78
2021/12/07 06:50:24;;;;;;;14.70;8.10;;;;;;;0.89;98.19;100092.23;101743;1316;60596;-77
2021/12/07 06:52:54;;;;;;;18.20;8.10;;;;;;;0.89;98.23;100099.00;101464;1327;74363;-77
2021/12/07 06:55:23;;;;;;;22.30;9.00;;;;;;;0.90;98.14;100094.38;101415;1325;72468;-75
2021/12/07 06:57:50;;;;;;;14.90;7.60;;;;;;;0.91;98.19;100099.34;102180;1313;72990;-80
2021/12/07 07:00:18;;;;;;;18.60;8.60;;;;;;;0.90;98.30;100096.01;103290;1313;60962;-78
2021/12/07 07:02:44;;;;;;;23.70;9.90;;;;;;;0.98;98.43;100106.64;101283;1332;62300;-80
2021/12/07 07:05:12;;;;;;;21.40;10.10;;;;;;;1.04;98.15;100108.21;102261;1313;73305;-77
2021/12/07 07:07:41;;;;;;;19.40;7.80;;;;;;;1.07;97.79;100113.70;102530;1313;71472;-80
2021/12/07 07:10:11;;;;;;;23.50;9.90;;;;;;;1.06;97.54;100118.46;102420;1313;74370;-80
2021/12/07 07:17:40;;;;;;;20.90;8.90;;;;;;;1.08;97.36;100132.07;103416;1306;73485;-79
2021/12/07 07:20:10;;;;;;;10.70;5.80;;;;;;;1.09;97.47;100136.33;102747;1310;71811;-79
2021/12/07 07:22:37;;;;;;;10.00;5.10;;;;;;;1.09;97.44;100137.73;103453;1308;76375;-80
2021/12/07 07:27:33;;;;;;;21.70;9.70;;;;;;;1.09;97.18;100144.40;103128;1307;61587;-78
2021/12/07 07:34:56;;;;;;;19.10;9.60;;;;;;;1.14;97.38;100149.55;104647;1309;72864;-78
2021/12/07 07:37:22;;;;;;;13.80;6.80;;;;;;;1.16;97.43;100150.39;105165;1319;57794;-79
2021/12/07 07:39:49;;;;;;;21.10;9.00;;;;;;;1.18;97.34;100154.94;104821;1309;57450;-79
2021/12/07 07:42:18;;;;;;;12.70;6.60;;;;;;;1.19;97.25;100148.70;104821;1306;74614;-79
2021/12/07 07:44:45;;;;;;;15.10;7.50;;;;;;;1.22;97.31;100156.52;104345;1309;74910;-80
2021/12/07 07:47:12;;;;;;;14.70;8.00;;;;;;;1.26;97.43;100159.70;104100;1325;73185;-81
2021/12/07 07:49:39;;;;;;;12.40;6.00;;;;;;;1.30;97.62;100163.17;104799;1321;58880;-80
2021/12/07 07:52:06;;;;;;;15.40;7.80;;;;;;;1.32;96.98;100163.52;105122;1318;60578;-79
2021/12/07 07:54:33;;;;;;;13.30;7.20;;;;;;;1.34;96.72;100171.56;104853;1320;74926;-79
2021/12/07 07:56:59;;;;;;;18.40;7.90;;;;;;;1.36;96.59;100176.27;105062;1321;72557;-80
2021/12/07 07:59:26;;;;;;;17.00;9.00;;;;;;;1.39;96.76;100172.38;105140;1319;57477;-78
2021/12/07 08:01:52;;;;;;;13.40;7.70;;;;;;;1.45;96.76;100175.36;105003;1323;62631;-79
2021/12/07 08:04:19;;;;;;;20.10;8.80;;;;;;;1.48;96.65;100173.30;105153;1322;60408;-80
2021/12/07 08:06:46;;;;;;;17.00;9.10;;;;;;;1.52;96.40;100179.58;104482;1322;73516;-79
2021/12/07 08:09:13;;;;;;;14.40;7.20;;;;;;;1.57;96.38;100176.27;104830;1326;70311;-80
2021/12/07 08:11:40;;;;;;;14.80;8.30;;;;;;;1.58;96.08;100179.69;103916;1328;73069;-80
2021/12/07 08:14:07;;;;;;;14.00;7.70;;;;;;;1.58;95.83;100178.95;105174;1319;60291;-81
2021/12/07 08:16:34;;;;;;;14.70;8.00;;;;;;;1.58;95.99;100178.38;103912;1329;61569;-80
2021/12/07 08:19:02;;;;;;;13.10;7.30;;;;;;;1.59;95.83;100179.73;105240;1319;73064;-79
2021/12/07 08:21:28;;;;;;;17.30;8.00;;;;;;;1.59;96.08;100180.05;104976;1320;70596;-80
2021/12/07 08:23:56;;;;;;;15.80;8.10;;;;;;;1.62;95.83;100183.80;105220;1319;74096;-80
2021/12/07 08:26:25;;;;;;;15.60;8.20;;;;;;;1.65;95.88;100187.45;105216;1323;62494;-79
2021/12/07 08:28:54;;;;;;;17.50;8.90;;;;;;;1.68;95.76;100191.90;105159;1325;61650;-79
2021/12/07 08:31:22;;;;;;;17.10;8.40;;;;;;;1.71;95.77;100196.02;105173;1322;73404;-81
2021/12/07 08:33:49;;;;;;;10.00;5.10;;;;;;;1.74;95.44;100197.85;105161;1319;72727;-81
2021/12/07 08:36:16;;;;;;;13.00;7.90;;;;;;;1.75;95.39;100199.66;105182;1315;73100;-82
2021/12/07 08:38:45;;;;;;;15.00;8.00;;;;;;;1.76;95.37;100203.38;104932;1322;59618;-80
2021/12/07 08:41:13;;;;;;;15.80;7.30;;;;;;;1.79;95.59;100201.37;105135;1322;60756;-81
2021/12/07 08:43:41;;;;;;;13.80;7.00;;;;;;;1.81;95.28;100201.77;104919;1322;73481;-79
2021/12/07 08:46:10;;;;;;;13.10;7.70;;;;;;;1.80;95.12;100199.91;104811;1325;72581;-80
2021/12/07 08:48:37;;;;;;;9.90;5.40;;;;;;;1.79;95.15;100203.11;105001;1323;73925;-79
2021/12/07 08:51:06;;;;;;;13.30;6.90;;;;;;;1.77;95.13;100200.70;104929;1323;59837;-80
2021/12/07 08:53:35;;;;;;;13.90;7.90;;;;;;;1.75;94.77;100203.15;105203;1320;61786;-80
2021/12/07 09:01:25;;;;;;;15.50;8.60;;;;;;;1.68;94.61;100209.31;105181;1319;71989;-79
2021/12/07 09:03:54;;;;;;;13.90;8.90;;;;;;;1.70;94.92;100212.62;104307;1325;61438;-80
2021/12/07 09:06:21;;;;;;;14.60;8.40;;;;;;;1.76;95.10;100217.34;105154;1319;60861;-81
2021/12/07 09:08:53;;;;;;;15.00;8.40;;;;;;;1.84;95.00;100217.58;105173;1319;73350;-81
2021/12/07 09:11:21;;;;;;;17.80;10.10;;;;;;;1.94;95.49;100221.71;105097;1322;72384;-80
2021/12/07 09:13:47;;;;;;;16.40;10.80;;;;;;;2.09;95.54;100224.88;105036;1326;73942;-80
2021/12/07 09:16:17;;;;;;;19.00;10.10;;;;;;;2.25;95.75;100227.79;104927;1319;59989;-81
2021/12/07 09:18:45;;;;;;;14.30;7.70;;;;;;;2.41;95.82;100229.75;105290;1319;61513;-80
2021/12/07 09:21:12;;;;;;;14.00;7.40;;;;;;;2.55;95.05;100230.48;104867;1320;74531;-81
2021/12/07 09:23:40;;;;;;;10.60;5.70;;;;;;;2.63;94.49;100230.82;105266;1320;72598;-79
2021/12/07 09:26:08;;;;;;;17.20;8.20;;;;;;;2.71;93.77;100236.60;105227;1317;72878;-81
2021/12/07 09:28:36;;;;;;;11.20;6.00;;;;;;;2.79;93.61;100239.64;105250;1319;62515;-81
2021/12/07 09:31:05;;;;;;;14.20;7.40;;;;;;;2.88;93.30;100240.33;105178;1323;61623;-80
2021/12/07 09:33:32;;;;;;;12.40;7.20;;;;;;;2.96;93.28;100242.20;104614;1326;74421;-81
2021/12/07 09:36:00;;;;;;;14.10;6.50;;;;;;;3.01;92.97;100244.02;105271;1317;70166;-79
2021/12/07 09:38:27;;;;;;;10.80;5.60;;;;;;;3.04;92.54;100249.72;105246;1318;73734;-80
2021/12/07 09:40:54;;;;;;;10.50;5.80;;;;;;;3.03;91.86;100250.31;104782;1319;58879;-80
2021/12/07 09:43:22;;;;;;;8.20;4.10;;;;;;;3.02;91.86;100252.36;105263;1323;60484;-80
2021/12/07 09:45:49;;;;;;;12.70;6.70;;;;;;;2.99;91.47;100248.17;105212;1319;77204;-79
2021/12/07 09:48:17;;;;;;;11.90;7.30;;;;;;;3.01;91.56;100248.19;105258;1319;72749;-80
2021/12/07 09:50:48;;;;;;;12.90;6.90;;;;;;;3.02;91.67;100249.69;105195;1323;73215;-79
2021/12/07 09:53:15;;;;;;;17.60;7.00;;;;;;;3.08;91.66;100249.84;104428;1323;61078;-81
2021/12/07 09:55:43;;;;;;;12.10;7.20;;;;;;;3.12;91.64;100247.02;105233;1306;60431;-79
2021/12/07 09:58:11;;;;;;;12.70;6.90;;;;;;;3.14;90.83;100240.71;104653;1307;77419;-79
2021/12/07 10:00:38;;;;;;;9.20;6.10;;;;;;;3.16;91.21;100237.21;105258;1318;74677;-79
2021/12/07 10:03:05;;;;;;;12.00;6.30;;;;;;;3.22;91.58;100237.38;105117;1323;71944;-79
2021/12/07 10:05:35;;;;;;;13.50;7.60;;;;;;;3.30;91.54;100235.48;105059;1324;62417;-79
2021/12/07 10:08:04;;;;;;;9.70;6.40;;;;;;;3.36;91.11;100236.52;105203;1324;60570;-80
2021/12/07 10:10:37;;;;;;;11.70;6.80;;;;;;;3.43;90.79;100231.86;105251;1319;74118;-82
2021/12/07 10:13:07;;;;;;;8.80;5.60;;;;;;;3.50;90.82;100231.92;104907;1317;72461;-81
2021/12/07 10:15:35;;;;;;;9.20;5.70;;;;;;;3.53;90.50;100229.34;104660;1322;73949;-79
2021/12/07 10:18:18;;;;;;;9.90;6.10;;;;;;;3.59;90.68;100228.45;103869;1329;59531;-80
2021/12/07 10:21:13;;;;;;;9.60;5.90;;;;;;;3.65;90.69;100226.33;105253;1317;62552;-81
2021/12/07 10:23:45;;;;;;;8.40;4.40;;;;;;;3.64;89.57;100238.49;105166;1319;75550;-81
2021/12/07 10:26:21;;;;;;;9.80;6.20;;;;;;;3.58;89.22;100240.77;105274;1317;71599;-82
2021/12/07 10:29:10;;;;;;;12.30;6.30;;;;;;;3.53;89.24;100239.34;104551;1322;72915;-81
2021/12/07 10:31:42;;;;;;;9.70;5.50;;;;;;;3.50;89.16;100241.73;104131;1326;60886;-82
2021/12/07 10:34:13;;;;;;;7.90;5.50;;;;;;;3.50;89.15;100240.00;105222;1312;61935;-80
2021/12/07 10:36:56;;;;;;;8.80;5.90;;;;;;;3.52;89.11;100238.21;105268;1317;74111;-80
2021/12/07 10:39:27;;;;;;;6.40;4.10;;;;;;;3.57;88.93;100234.05;104564;1310;71411;-78
2021/12/07 10:42:02;;;;;;;9.60;5.60;;;;;;;3.58;88.84;100227.88;105139;1324;73050;-80
2021/12/07 10:44:42;;;;;;;9.20;5.20;;;;;;;3.65;88.92;100236.41;105250;1320;61963;-78
2021/12/07 10:47:20;;;;;;;8.20;5.50;;;;;;;3.72;88.77;100234.70;104003;1322;61728;-78
2021/12/07 10:49:53;;;;;;;8.90;5.30;;;;;;;3.74;88.63;100229.71;105010;1320;74113;-79
2021/12/07 10:55:18;;;;;;;7.60;4.30;;;;;;;3.74;88.14;100231.27;104657;1325;72996;-81
2021/12/07 10:57:54;;;;;;;9.50;5.80;;;;;;;3.77;88.01;100232.24;105236;1325;62737;-79
2021/12/07 11:00:25;;;;;;;7.00;4.70;;;;;;;3.82;88.07;100235.96;105233;1325;60760;-81
2021/12/07 11:03:10;;;;;;;8.10;5.20;;;;;;;3.88;88.26;100234.04;105081;1320;75593;-81
2021/12/07 11:05:54;;;;;;;;;;;;;;;3.96;88.15;100228.05;105229;1322;71522;-80
2021/12/07 11:08:33;;;;;;;5.30;3.20;;;;;;;4.02;87.64;100228.98;104230;1328;74282;-80
2021/12/07 11:11:10;;;;;;;6.60;5.00;;;;;;;4.01;86.99;100233.63;105100;1320;60934;-80
2021/12/07 11:13:36;;;;;;;7.30;5.10;;;;;;;3.96;86.20;100232.20;104569;1307;59024;-80
2021/12/07 11:16:10;;;;;;;6.00;3.90;;;;;;;3.92;87.04;100225.90;105366;1321;74156;-80
2021/12/07 11:18:40;;;;;;;5.40;4.00;;;;;;;3.89;87.45;100225.55;105117;1322;72260;-80
2021/12/07 11:21:10;;;;;;;8.40;4.70;;;;;;;3.87;87.49;100216.94;105225;1322;72959;-80
2021/12/07 11:23:40;;;;;;;9.20;4.60;;;;;;;3.87;87.37;100212.05;104282;1325;64001;-80
2021/12/07 11:31:56;;;;;;;5.60;3.90;;;;;;;3.85;87.62;100224.52;104914;1316;73096;-81
2021/12/07 11:34:29;;;;;;;8.10;4.60;;;;;;;3.87;87.47;100228.48;105267;1320;73092;-81
2021/12/07 11:37:01;;;;;;;8.60;4.90;;;;;;;3.88;87.38;100223.49;105259;1322;61457;-82
2021/12/07 11:39:31;;;;;;;8.40;4.90;;;;;;;3.90;87.26;100222.63;105237;1317;60787;-79
2021/12/07 11:42:05;;;;;;;8.20;5.10;;;;;;;3.95;87.72;100228.64;105287;1321;73191;-81
2021/12/07 11:44:45;;;;;;;10.70;5.80;;;;;;;3.97;87.55;100237.51;105249;1319;71658;-81
2021/12/07 11:47:11;;;;;;;9.90;5.90;;;;;;;3.98;87.82;100243.20;105245;1320;72900;-82
2021/12/07 11:49:38;;;;;;;9.80;5.60;;;;;;;4.02;87.91;100249.81;105005;1319;59754;-80
2021/12/07 11:52:07;;;;;;;9.50;6.00;;;;;;;4.02;87.93;100246.47;104738;1319;60262;-80
2021/12/07 11:54:38;;;;;;;10.70;5.60;;;;;;;3.99;87.42;100239.29;105183;1322;75428;-81
2021/12/07 11:57:07;;;;;;;10.70;5.20;;;;;;;3.95;87.30;100235.45;104638;1322;71388;-81
2021/12/07 11:59:35;;;;;;;9.90;5.80;;;;;;;3.93;87.17;100241.13;105053;1322;74032;-81
2021/12/07 12:02:01;;;;;;;8.80;5.20;;;;;;;3.90;87.13;100246.83;105222;1322;60725;-81
2021/12/07 12:04:28;;;;;;;8.90;5.50;;;;;;;3.86;87.23;100253.75;105249;1320;60528;-80
2021/12/07 12:06:56;;;;;;;10.20;5.60;;;;;;;3.85;87.41;100251.80;105178;1320;75188;-80
2021/12/07 12:09:25;;;;;;;12.30;6.40;;;;;;;3.84;87.45;100253.09;105278;1324;72545;-79
2021/12/07 12:17:16;;;;;;;16.90;8.00;;;;;;;3.83;87.94;100255.42;105037;1307;58963;-80
2021/12/07 12:20:00;;;;;;;12.60;6.80;;;;;;;3.83;88.04;100254.63;104755;1319;73257;-81
2021/12/07 12:22:52;;;;;;;12.00;6.30;;;;;;;3.81;88.41;100249.88;104578;1319;71608;-81
2021/12/07 12:25:22;;;;;;;9.80;6.00;;;;;;;3.80;88.73;100251.18;104606;1317;71965;-79
2021/12/07 12:27:50;;;;;;;11.00;6.60;;;;;;;3.78;88.74;100248.59;105228;1319;62558;-81
2021/12/07 12:30:42;;;;;;;11.70;6.90;;;;;;;3.77;88.97;100248.37;104951;1322;60824;-78
2021/12/07 12:33:11;;;;;;;7.70;5.20;;;;;;;3.70;89.16;100245.30;105286;1319;75504;-81
2021/12/07 12:35:53;;;;;;;13.00;5.70;;;;;;;3.63;89.25;100246.96;105308;1319;72462;-81
2021/12/07 12:38:28;;;;;;;11.40;5.70;;;;;;;3.58;89.61;100243.02;105197;1324;73119;-81
2021/12/07 12:40:57;;;;;;;12.60;6.90;;;;;;;3.61;89.69;100228.14;105283;1319;62249;-80
2021/12/07 12:43:40;;;;;;;12.80;7.20;;;;;;;3.60;90.04;100224.67;105303;1321;61611;-80
2021/12/07 12:46:10;;;;;;;13.40;7.40;;;;;;;3.59;90.03;100240.66;105335;1319;75821;-81
2021/12/07 12:48:37;;;;;;;12.70;7.20;;;;;;;3.60;90.58;100242.05;105229;1318;71236;-81
2021/12/07 12:51:05;;;;;;;11.30;6.90;;;;;;;3.60;90.55;100247.46;105282;1323;72893;-82
2021/12/07 12:53:34;;;;;;;15.80;7.30;;;;;;;3.55;90.71;100252.09;103913;1325;60872;-81
2021/12/07 12:58:33;;;;;;;10.50;5.70;;;;;;;3.44;91.04;100244.50;104991;1306;72782;-78
2021/12/07 13:01:25;;;;;;;12.80;6.90;;;;;;;3.43;91.15;100244.27;99751;1340;601207;-78
2021/12/07 13:04:14;;;;;;;12.30;6.80;;;;;;;3.35;91.56;100245.15;101388;1329;60485;-78
2021/12/07 13:06:46;;;;;;;9.40;5.70;;;;;;;3.32;91.92;100255.27;101501;1329;60558;-78
2021/12/07 13:09:17;;;;;;;16.30;5.80;;;;;;;3.31;92.09;100260.44;101991;1317;72544;-79
2021/12/07 13:14:21;;;;;;;12.20;6.10;;;;;;;3.28;92.60;100252.64;103674;1313;223078;-82
2021/12/07 13:16:49;;;;;;;9.90;5.70;;;;;;;3.28;92.88;100257.54;102544;1311;62714;-78
2021/12/07 13:21:49;;;;;;;11.60;6.50;;;;;;;3.24;93.09;100250.31;103039;1304;72610;-77
2021/12/07 13:26:57;;;;;;;13.20;6.30;;;;;;;3.26;93.49;100246.34;102087;1319;73920;-75
2021/12/07 13:29:26;;;;;;;12.10;5.70;;;;;;;3.30;93.87;100244.12;101920;1319;62605;-81
2021/12/07 13:31:56;;;;;;;13.50;7.90;;;;;;;3.30;93.83;100244.60;104468;1299;60473;-81
2021/12/07 13:34:32;;;;;;;10.40;5.80;;;;;;;3.26;94.12;100240.52;103532;1303;71921;-80
2021/12/07 13:37:04;;;;;;;15.10;7.00;;;;;;;3.24;94.35;100238.29;102549;1306;72713;-79
2021/12/07 13:44:41;;;;;;;13.90;6.50;;;;;;;3.20;94.93;100240.36;102688;1300;60669;-77
2021/12/07 13:47:14;;;;;;;12.90;6.40;;;;;;;3.22;95.08;100243.86;102754;1306;73411;-78
2021/12/07 13:49:47;;;;;;;12.90;6.00;;;;;;;3.22;95.13;100247.66;102733;1304;71411;-77
2021/12/07 13:52:18;;;;;;;16.40;8.10;;;;;;;3.21;95.41;100248.88;103540;1304;72978;-80
2021/12/07 13:54:48;;;;;;;17.90;8.10;;;;;;;3.13;95.61;100238.23;103176;1306;61143;-80